首页
METAR-TAF:

METAR-TAF

机场 :

克卢日-纳波卡, 罗马尼亚

纬度: 46-47N, 经度: 023-34E, 海拔: 315米

当前天气观测

该预报发布于25分钟前的16:30 UTC
风速7节,风向东北,在北转东北之间变化
温度 25°C
湿度 47%
气压 1019 hPa
能见度10公里或以上
1500米以下无云,无积雨云

METAR: LRCL 201630Z 05007KT 020V080 CAVOK 25/13 Q1019

时间: 19:55 (16:55 UTC)

预报

该预报发布于2小时和55分钟前的14:00 UTC
预报有效从20日的 15点(UTC)到 20日的 24点(UTC)
风速4节,风向多变
能见度10公里或以上
1500米以下无云,无积雨云
短暂存在
从 20日的 15点(UTC)到 20日的 17点(UTC)
散云层高于4500英尺, 积雨云.

TAF: LRCL 201400Z 2015/2024 VRB04KT CAVOK TEMPO 2015/2017 SCT045CB

超过4000个机场的气象观测和天气预报(METAR&TAF报告)。

可查询的气象台以黄色和红色小点在地图上表示。

将鼠标移到小点上方,可查看气象台名称。

然后点击查看天气观测和预报。

如需切换地图:点击带黑十字的绿色按钮放大地图;点击带横线的绿色按钮缩小地图;或者点击绿色箭头查看邻近地区的地图。


METAR-TAF: